Time;durP1;ratioP1;P1;durP2;ratioP2;P2;SDS_P1;SDS_P2;PMS_P1;PMS_P2;Temp;Humidity;BMP_temperature;BMP_pressure;BME280_temperature;BME280_humidity;BME280_pressure;Samples;Min_cycle;Max_cycle;Signal;HPM_P1;HPM_P2
2022/04/17 00:00:18;;;;;;;4.70;2.97;;;;;;;4.23;92.03;97887.88;5020942;28;20067;-71
2022/04/17 00:02:44;;;;;;;6.53;2.78;;;;;;;4.29;91.28;97887.19;5024934;28;20805;-69
2022/04/17 00:05:10;;;;;;;6.68;2.58;;;;;;;4.30;92.19;97878.22;5023368;28;20343;-69
2022/04/17 00:07:36;;;;;;;5.82;2.47;;;;;;;4.22;92.53;97875.63;5029671;28;20597;-69
2022/04/17 00:10:02;;;;;;;5.35;2.90;;;;;;;4.25;92.62;97883.22;5022088;28;20531;-68
2022/04/17 00:12:28;;;;;;;9.25;2.88;;;;;;;4.21;91.71;97881.09;5022982;28;20839;-69
2022/04/17 00:14:55;;;;;;;5.47;2.80;;;;;;;4.30;91.20;97877.41;5024666;28;20038;-70
2022/04/17 00:17:23;;;;;;;8.23;3.03;;;;;;;4.35;91.66;97875.84;5021073;28;20222;-70
2022/04/17 00:19:49;;;;;;;5.55;3.05;;;;;;;4.17;92.88;97883.25;5023474;28;20579;-71
2022/04/17 00:22:15;;;;;;;5.07;2.58;;;;;;;4.29;91.70;97884.53;5022413;28;20037;-71
2022/04/17 00:24:41;;;;;;;3.97;2.45;;;;;;;4.30;92.53;97877.41;5028753;28;20029;-68
2022/04/17 00:27:08;;;;;;;5.45;2.90;;;;;;;4.28;92.89;97879.38;5027454;28;20039;-69
2022/04/17 00:29:33;;;;;;;5.40;2.50;;;;;;;4.18;91.81;97883.09;5030634;28;20392;-68
2022/04/17 00:31:59;;;;;;;7.80;2.60;;;;;;;4.22;93.15;97883.56;5026328;28;20059;-69
2022/04/17 00:34:26;;;;;;;5.32;2.85;;;;;;;4.25;92.78;97888.50;5029115;28;20622;-70
2022/04/17 00:36:52;;;;;;;5.65;2.50;;;;;;;4.16;93.83;97887.72;5027596;28;20046;-71
2022/04/17 00:39:18;;;;;;;7.75;2.92;;;;;;;4.09;93.67;97881.47;5026887;28;20052;-69
2022/04/17 00:41:43;;;;;;;8.13;2.70;;;;;;;4.13;93.21;97887.28;5026165;28;20468;-70
2022/04/17 00:44:13;;;;;;;4.57;2.70;;;;;;;4.03;93.89;97882.16;5025964;28;20045;-69
2022/04/17 00:46:40;;;;;;;5.80;3.00;;;;;;;4.00;94.45;97882.50;5033439;28;20373;-69
2022/04/17 00:49:07;;;;;;;5.32;2.78;;;;;;;3.88;95.40;97879.41;5024628;28;20386;-69
2022/04/17 00:51:34;;;;;;;4.03;2.28;;;;;;;3.86;95.34;97870.81;5040557;28;20833;-69
2022/04/17 00:54:02;;;;;;;5.88;2.40;;;;;;;3.80;96.06;97868.84;5026877;28;20065;-71
2022/04/17 00:56:30;;;;;;;7.72;2.70;;;;;;;3.84;95.91;97856.94;5027906;28;20091;-69
2022/04/17 00:58:55;;;;;;;5.35;2.30;;;;;;;3.78;96.71;97857.59;5025692;28;20049;-70
2022/04/17 01:01:21;;;;;;;4.43;1.95;;;;;;;3.75;96.99;97851.84;5027306;28;20464;-69
2022/04/17 01:03:49;;;;;;;5.60;2.78;;;;;;;3.71;97.37;97851.34;5026971;28;20349;-70
2022/04/17 01:06:14;;;;;;;5.95;2.90;;;;;;;3.60;97.83;97841.97;5026480;28;20080;-70
2022/04/17 01:08:41;;;;;;;4.80;2.38;;;;;;;3.58;98.88;97859.84;5025348;28;20029;-71
2022/04/17 01:11:11;;;;;;;4.38;2.13;;;;;;;3.55;98.91;97844.28;5024393;28;20060;-69
2022/04/17 01:13:41;;;;;;;6.87;2.40;;;;;;;3.52;99.49;97854.41;5027508;28;20415;-68
2022/04/17 01:16:07;;;;;;;4.40;2.35;;;;;;;3.53;99.38;97850.75;5024441;28;20056;-69
2022/04/17 01:19:11;;;;;;;5.28;2.65;;;;;;;3.48;99.80;97858.38;5027741;28;20037;-70
2022/04/17 01:21:41;;;;;;;4.43;2.35;;;;;;;3.47;100.00;97846.94;5027451;28;20215;-70
2022/04/17 01:26:57;;;;;;;5.30;2.10;;;;;;;3.49;99.99;97841.47;5025849;28;20152;-70
2022/04/17 01:29:25;;;;;;;4.90;2.25;;;;;;;3.49;100.00;97831.72;5056328;28;20563;-70
2022/04/17 01:31:51;;;;;;;5.07;2.30;;;;;;;3.47;100.00;97833.72;5025934;28;20380;-69
2022/04/17 01:34:17;;;;;;;4.15;1.92;;;;;;;3.40;100.00;97835.38;5038729;28;20044;-71
2022/04/17 01:36:44;;;;;;;5.00;2.42;;;;;;;3.31;100.00;97834.59;5024468;28;20045;-71
2022/04/17 01:39:10;;;;;;;5.93;2.47;;;;;;;3.32;100.00;97827.47;5023218;28;20370;-69
2022/04/17 01:41:36;;;;;;;4.80;2.35;;;;;;;3.39;100.00;97832.91;5024643;28;20037;-69
2022/04/17 01:44:02;;;;;;;6.57;2.50;;;;;;;3.43;99.10;97842.19;5023868;28;20037;-69
2022/04/17 01:46:27;;;;;;;7.43;2.70;;;;;;;3.51;100.00;97837.69;5024980;28;20064;-71
2022/04/17 01:48:54;;;;;;;5.97;2.53;;;;;;;3.56;98.06;97835.34;5022670;28;20125;-71
2022/04/17 01:51:20;;;;;;;4.90;2.22;;;;;;;3.54;99.46;97842.63;5026278;28;20041;-69
2022/04/17 01:53:45;;;;;;;7.18;2.50;;;;;;;3.50;100.00;97836.03;5028023;28;20033;-69
2022/04/17 01:56:11;;;;;;;7.35;2.83;;;;;;;3.40;100.00;97832.75;5025190;28;20052;-71
2022/04/17 01:58:37;;;;;;;5.22;2.17;;;;;;;3.44;99.79;97825.31;5022655;28;20407;-71
2022/04/17 02:01:03;;;;;;;5.13;2.28;;;;;;;3.44;100.00;97823.50;5023697;28;20995;-71
2022/04/17 02:03:29;;;;;;;4.45;2.30;;;;;;;3.40;100.00;97818.69;5026469;28;20049;-69
2022/04/17 02:05:54;;;;;;;11.05;4.20;;;;;;;3.40;100.00;97827.44;5025711;28;20042;-69
2022/04/17 02:08:19;;;;;;;4.63;2.15;;;;;;;3.38;100.00;97818.88;5024980;28;20500;-68
2022/04/17 02:10:45;;;;;;;6.65;2.20;;;;;;;3.27;100.00;97817.41;5026063;28;20095;-70
2022/04/17 02:13:10;;;;;;;4.32;2.30;;;;;;;3.29;100.00;97804.00;5025575;28;20049;-69
2022/04/17 02:15:36;;;;;;;5.22;2.58;;;;;;;3.37;100.00;97806.63;5024831;28;20479;-70
2022/04/17 02:18:01;;;;;;;4.70;2.45;;;;;;;3.35;100.00;97801.53;5024827;28;20041;-69
2022/04/17 02:20:27;;;;;;;6.53;2.33;;;;;;;3.24;100.00;97796.56;5023719;28;20044;-70
2022/04/17 02:22:52;;;;;;;5.70;2.53;;;;;;;3.24;100.00;97806.34;5025028;28;20633;-69
2022/04/17 02:25:18;;;;;;;5.03;2.45;;;;;;;3.21;100.00;97807.50;5024212;28;20148;-70
2022/04/17 02:27:44;;;;;;;4.38;2.00;;;;;;;3.15;100.00;97802.06;5024545;28;20099;-69
2022/04/17 02:30:10;;;;;;;8.77;2.00;;;;;;;3.10;100.00;97799.91;5021775;28;20037;-70
2022/04/17 02:32:35;;;;;;;5.75;2.38;;;;;;;3.11;100.00;97803.38;5025196;28;20460;-71
2022/04/17 02:35:01;;;;;;;4.97;2.25;;;;;;;3.05;100.00;97794.31;5025522;28;20112;-71
2022/04/17 02:37:29;;;;;;;7.38;2.40;;;;;;;2.97;100.00;97789.03;5025121;28;20435;-69
2022/04/17 02:39:58;;;;;;;4.30;1.85;;;;;;;2.94;100.00;97790.19;5021933;28;20042;-68
2022/04/17 02:42:23;;;;;;;5.05;2.20;;;;;;;2.88;100.00;97785.59;5024093;28;20036;-71
2022/04/17 02:44:49;;;;;;;7.82;2.40;;;;;;;2.89;100.00;97789.88;5025275;28;20439;-71
2022/04/17 02:49:58;;;;;;;4.60;2.10;;;;;;;2.90;100.00;97788.06;5024131;28;20071;-70
2022/04/17 02:52:24;;;;;;;4.82;2.28;;;;;;;2.89;100.00;97786.41;5024490;28;20484;-69
2022/04/17 02:54:49;;;;;;;6.25;2.10;;;;;;;2.83;100.00;97779.16;5022696;28;20472;-69
2022/04/17 02:57:15;;;;;;;5.63;2.42;;;;;;;2.80;100.00;97777.66;5023089;28;20037;-69
2022/04/17 02:59:40;;;;;;;7.00;2.20;;;;;;;2.84;100.00;97767.56;5021619;28;20045;-70
2022/04/17 03:07:34;;;;;;;5.75;2.47;;;;;;;2.81;100.00;97768.75;5025102;28;20041;-69
2022/04/17 03:10:02;;;;;;;6.50;1.90;;;;;;;2.78;100.00;97769.06;5023732;28;20033;-69
2022/04/17 03:12:27;;;;;;;3.72;2.08;;;;;;;2.75;100.00;97753.56;5024628;28;20483;-70
2022/04/17 03:14:53;;;;;;;5.07;2.03;;;;;;;2.81;100.00;97754.72;5025060;28;20033;-70
2022/04/17 03:17:18;;;;;;;6.18;2.45;;;;;;;2.77;100.00;97756.84;5020995;28;20117;-71
2022/04/17 03:19:44;;;;;;;4.55;2.10;;;;;;;2.77;100.00;97751.56;5021708;28;20129;-71
2022/04/17 03:22:10;;;;;;;7.78;2.20;;;;;;;2.79;100.00;97749.56;5024128;28;20121;-69
2022/04/17 03:24:35;;;;;;;8.63;1.77;;;;;;;2.79;100.00;97750.38;5023543;28;20029;-69
2022/04/17 03:27:00;;;;;;;6.13;2.05;;;;;;;2.76;100.00;97752.56;5025478;28;20428;-71
2022/04/17 03:29:26;;;;;;;6.97;2.20;;;;;;;2.72;100.00;97751.22;5024054;28;20037;-68
2022/04/17 03:31:51;;;;;;;5.72;2.28;;;;;;;2.68;100.00;97752.56;5023526;28;20046;-69
2022/04/17 03:34:18;;;;;;;10.25;2.92;;;;;;;2.67;100.00;97756.22;5021910;28;20068;-71
2022/04/17 03:36:44;;;;;;;4.47;2.10;;;;;;;2.68;100.00;97761.31;5024641;28;20040;-70
2022/04/17 03:39:10;;;;;;;4.03;2.20;;;;;;;2.68;100.00;97758.69;5024505;28;20291;-68
2022/04/17 03:41:35;;;;;;;5.75;1.95;;;;;;;2.63;100.00;97755.69;5020490;28;20099;-70
2022/04/17 03:44:04;;;;;;;6.05;2.20;;;;;;;2.61;100.00;97754.22;5026581;28;20072;-69
2022/04/17 03:46:30;;;;;;;5.65;3.15;;;;;;;2.64;100.00;97759.16;5021854;28;20033;-70
2022/04/17 03:48:56;;;;;;;8.90;3.78;;;;;;;2.61;100.00;97751.56;5023427;28;20144;-70
2022/04/17 03:51:21;;;;;;;4.63;2.15;;;;;;;2.59;100.00;97753.56;5023659;28;20906;-69
2022/04/17 03:53:47;;;;;;;4.80;2.20;;;;;;;2.56;100.00;97749.44;5023789;28;20094;-70
2022/04/17 03:56:12;;;;;;;3.88;1.98;;;;;;;2.54;100.00;97746.13;5023208;28;20543;-70
2022/04/17 03:58:38;;;;;;;4.78;2.00;;;;;;;2.59;100.00;97748.28;5025307;28;20034;-69
2022/04/17 04:01:03;;;;;;;4.55;2.17;;;;;;;2.55;100.00;97753.06;5025417;28;20145;-72
2022/04/17 04:03:29;;;;;;;4.63;2.33;;;;;;;2.51;100.00;97744.66;5026844;28;20088;-69
2022/04/17 04:05:55;;;;;;;5.80;2.30;;;;;;;2.50;100.00;97750.94;5027518;28;20621;-70
2022/04/17 04:08:21;;;;;;;6.28;2.35;;;;;;;2.46;100.00;97749.59;5027631;28;20057;-69
2022/04/17 04:10:47;;;;;;;5.18;2.20;;;;;;;2.49;100.00;97748.44;5026922;28;20183;-69
2022/04/17 04:13:12;;;;;;;6.78;2.08;;;;;;;2.48;100.00;97741.50;5028965;28;20088;-70
2022/04/17 04:15:38;;;;;;;5.70;2.10;;;;;;;2.49;100.00;97754.56;5028586;28;20544;-72
2022/04/17 04:18:03;;;;;;;5.38;2.33;;;;;;;2.45;100.00;97758.53;5027397;28;20499;-72
2022/04/17 04:20:29;;;;;;;5.25;2.58;;;;;;;2.43;100.00;97752.59;5027563;28;20069;-70
2022/04/17 04:22:55;;;;;;;4.13;1.98;;;;;;;2.39;100.00;97753.91;5027593;28;20748;-71
2022/04/17 04:25:21;;;;;;;4.18;2.15;;;;;;;2.38;100.00;97756.72;5024204;28;20669;-72
2022/04/17 04:30:30;;;;;;;3.78;2.00;;;;;;;2.43;100.00;97768.44;5026308;28;20436;-70
2022/04/17 04:32:56;;;;;;;7.78;2.80;;;;;;;2.38;100.00;97772.56;5028470;28;20069;-71
2022/04/17 04:35:23;;;;;;;5.03;2.40;;;;;;;2.31;100.00;97761.00;5027157;28;20867;-70
2022/04/17 04:37:49;;;;;;;5.15;2.50;;;;;;;2.34;100.00;97758.88;5026424;28;20120;-70
2022/04/17 04:40:15;;;;;;;5.30;2.30;;;;;;;2.31;100.00;97759.19;5026193;28;20052;-71
2022/04/17 04:42:41;;;;;;;5.20;2.28;;;;;;;2.35;100.00;97773.72;5034660;28;20135;-69
2022/04/17 04:47:51;;;;;;;3.97;2.13;;;;;;;2.12;100.00;97767.44;5027245;28;20051;-70
2022/04/17 04:50:16;;;;;;;4.50;2.25;;;;;;;2.09;100.00;97768.56;5024498;28;20021;-71
2022/04/17 04:52:42;;;;;;;7.10;2.30;;;;;;;2.07;100.00;97759.16;5028954;28;20049;-70
2022/04/17 04:55:08;;;;;;;6.80;2.42;;;;;;;2.04;100.00;97775.34;5026853;28;20030;-72
2022/04/17 04:57:37;;;;;;;4.47;2.20;;;;;;;2.00;100.00;97764.25;5026234;28;20045;-71
2022/04/17 05:00:07;;;;;;;5.80;2.75;;;;;;;2.00;100.00;97774.00;5027517;28;21481;-72
2022/04/17 05:02:37;;;;;;;8.00;2.60;;;;;;;2.07;100.00;97783.75;5027983;28;20176;-69
2022/04/17 05:05:07;;;;;;;5.38;2.70;;;;;;;2.02;100.00;97785.22;5019635;28;20033;-72
2022/04/17 05:07:33;;;;;;;4.85;2.33;;;;;;;2.03;100.00;97790.38;5029020;28;20153;-69
2022/04/17 05:10:00;;;;;;;5.00;2.47;;;;;;;2.02;100.00;97793.13;5023565;28;20041;-71
2022/04/17 05:12:27;;;;;;;5.97;2.30;;;;;;;2.01;100.00;97784.41;5024882;28;20041;-70
2022/04/17 05:14:52;;;;;;;6.90;2.38;;;;;;;2.02;100.00;97793.13;5026833;28;20083;-70
2022/04/17 05:17:18;;;;;;;4.20;1.90;;;;;;;2.10;100.00;97780.81;5021812;28;20097;-71
2022/04/17 05:19:43;;;;;;;4.63;2.28;;;;;;;2.13;100.00;97784.94;5025217;28;20037;-71
2022/04/17 05:22:16;;;;;;;6.53;2.30;;;;;;;2.21;100.00;97779.66;5026484;28;20052;-69
2022/04/17 05:24:43;;;;;;;3.88;2.17;;;;;;;2.19;100.00;97779.00;5025525;28;20595;-70
2022/04/17 05:27:10;;;;;;;5.65;2.17;;;;;;;2.30;100.00;97786.59;5025165;28;20275;-70
2022/04/17 05:29:36;;;;;;;10.43;2.22;;;;;;;2.40;100.00;97779.31;5023873;28;20037;-70
2022/04/17 05:32:02;;;;;;;8.73;2.60;;;;;;;2.53;100.00;97778.00;5024966;28;20184;-70
2022/04/17 05:34:27;;;;;;;6.70;2.00;;;;;;;2.61;100.00;97760.34;5027530;28;20033;-70
2022/04/17 05:36:53;;;;;;;7.43;2.92;;;;;;;2.75;100.00;97764.13;5025420;28;20095;-69
2022/04/17 05:39:19;;;;;;;2.92;1.45;;;;;;;2.91;100.00;97757.97;5023435;28;20045;-70
2022/04/17 05:41:45;;;;;;;7.03;2.20;;;;;;;3.05;100.00;97758.13;5024601;28;20045;-70
2022/04/17 05:44:12;;;;;;;7.05;2.20;;;;;;;3.15;100.00;97755.28;5022018;28;20052;-71
2022/04/17 05:46:39;;;;;;;3.25;1.40;;;;;;;3.25;100.00;97752.41;5024591;28;20065;-70
2022/04/17 05:49:06;;;;;;;6.32;2.15;;;;;;;3.34;100.00;97752.22;5022125;28;20381;-70
2022/04/17 05:51:33;;;;;;;4.70;2.00;;;;;;;3.43;100.00;97747.75;4987543;28;1099553;-71
2022/04/17 05:53:59;;;;;;;6.28;2.00;;;;;;;3.50;100.00;97743.41;5023577;28;20106;-69
2022/04/17 05:56:26;;;;;;;4.18;1.95;;;;;;;3.61;100.00;97753.59;5025342;28;20087;-69
2022/04/17 05:58:51;;;;;;;5.55;2.40;;;;;;;3.72;100.00;97752.38;5025425;28;20037;-70
2022/04/17 06:01:17;;;;;;;3.75;1.73;;;;;;;3.76;100.00;97742.28;5023592;28;20045;-69
2022/04/17 06:03:43;;;;;;;5.00;2.10;;;;;;;3.84;100.00;97751.00;5025470;28;20075;-71
2022/04/17 06:06:09;;;;;;;5.28;2.05;;;;;;;3.89;100.00;97739.88;5023174;28;20033;-70
2022/04/17 06:08:34;;;;;;;4.93;1.83;;;;;;;3.95;100.00;97746.28;5025871;28;20040;-69
2022/04/17 06:11:01;;;;;;;3.88;1.80;;;;;;;4.04;100.00;97747.88;5027674;28;20222;-70
2022/04/17 06:13:26;;;;;;;3.92;2.15;;;;;;;4.13;100.00;97749.50;5026991;28;20052;-71
2022/04/17 06:15:52;;;;;;;6.15;2.72;;;;;;;4.19;100.00;97757.53;5026711;28;20032;-70
2022/04/17 06:18:17;;;;;;;6.25;2.35;;;;;;;4.33;100.00;97755.97;5024070;28;20128;-70
2022/04/17 06:20:43;;;;;;;4.47;1.90;;;;;;;4.40;100.00;97761.38;5023749;28;20045;-69
2022/04/17 06:23:08;;;;;;;3.70;1.42;;;;;;;4.43;100.00;97756.53;5024443;28;20052;-71
2022/04/17 06:25:34;;;;;;;4.97;2.00;;;;;;;4.53;100.00;97758.97;5025748;28;20041;-69
2022/04/17 06:27:59;;;;;;;4.07;1.80;;;;;;;4.59;100.00;97745.00;5024933;28;20040;-69
2022/04/17 06:30:25;;;;;;;4.20;1.55;;;;;;;4.63;100.00;97740.16;5022232;28;20540;-69
2022/04/17 06:32:51;;;;;;;4.05;1.95;;;;;;;4.79;100.00;97741.81;5024841;28;20432;-70
2022/04/17 06:35:17;;;;;;;6.18;1.27;;;;;;;4.81;100.00;97730.03;5023799;28;20178;-72
2022/04/17 06:37:54;;;;;;;2.58;1.27;;;;;;;4.84;100.00;97715.59;5026676;28;20375;-71
2022/04/17 06:40:34;;;;;;;4.70;1.70;;;;;;;4.94;100.00;97721.44;5021666;28;20038;-70
2022/04/17 06:43:03;;;;;;;2.78;1.45;;;;;;;4.98;100.00;97715.59;5027036;28;20361;-69
2022/04/17 06:45:29;;;;;;;5.68;2.22;;;;;;;5.11;100.00;97716.78;5022798;28;20045;-71
2022/04/17 06:47:55;;;;;;;4.93;1.38;;;;;;;5.13;100.00;97709.44;5025317;28;20072;-71
2022/04/17 06:50:22;;;;;;;3.88;1.67;;;;;;;5.14;100.00;97722.56;5021656;28;20033;-71
2022/04/17 06:52:48;;;;;;;4.25;1.90;;;;;;;5.15;100.00;97712.78;5025930;28;20056;-72
2022/04/17 06:55:14;;;;;;;5.93;2.08;;;;;;;5.27;99.99;97717.41;5021746;28;20045;-69
2022/04/17 06:57:50;;;;;;;3.63;1.73;;;;;;;5.31;98.23;97716.03;5023960;28;20037;-70
2022/04/17 07:00:17;;;;;;;4.22;2.00;;;;;;;5.35;99.03;97713.00;5018849;28;20032;-71
2022/04/17 07:02:43;;;;;;;3.83;2.10;;;;;;;5.47;99.66;97708.88;4330417;28;10000908;-70
2022/04/17 07:05:11;;;;;;;2.55;1.30;;;;;;;5.52;97.51;97711.78;5021241;28;20084;-72
2022/04/17 07:07:37;;;;;;;4.43;2.22;;;;;;;5.63;99.64;97713.97;5024555;28;20128;-70
2022/04/17 07:10:03;;;;;;;4.53;2.00;;;;;;;5.73;98.23;97714.50;5022531;28;20761;-72
2022/04/17 07:12:29;;;;;;;4.88;2.05;;;;;;;5.83;96.70;97707.03;5024159;28;20041;-70
2022/04/17 07:14:55;;;;;;;3.67;1.50;;;;;;;5.81;93.95;97710.91;5026773;28;20666;-70
2022/04/17 07:17:20;;;;;;;4.45;2.17;;;;;;;5.84;94.69;97716.69;5021780;28;20033;-71
2022/04/17 07:19:46;;;;;;;4.53;2.35;;;;;;;5.93;94.27;97713.94;5054408;28;20060;-70
2022/04/17 07:22:13;;;;;;;3.92;1.55;;;;;;;5.93;92.22;97717.41;5021502;28;20063;-71
2022/04/17 07:24:43;;;;;;;4.00;2.08;;;;;;;5.98;93.11;97728.28;5026401;28;20041;-69
2022/04/17 07:27:11;;;;;;;4.30;1.70;;;;;;;6.11;94.70;97720.47;5021548;28;20052;-69
2022/04/17 07:29:38;;;;;;;3.70;1.35;;;;;;;6.22;93.08;97720.94;5023849;28;20064;-71
2022/04/17 07:32:04;;;;;;;2.28;1.15;;;;;;;6.20;90.95;97715.00;5020478;28;20045;-72
2022/04/17 07:34:30;;;;;;;2.90;1.40;;;;;;;6.32;92.72;97708.19;5025144;28;20119;-72
2022/04/17 07:36:55;;;;;;;6.13;2.95;;;;;;;6.46;93.59;97695.81;5024087;28;20041;-70
2022/04/17 07:39:22;;;;;;;5.40;2.00;;;;;;;6.47;93.38;97692.16;5022530;28;20492;-69
2022/04/17 07:41:48;;;;;;;5.15;2.13;;;;;;;6.50;90.77;97702.41;5023113;28;20037;-71
2022/04/17 07:44:14;;;;;;;4.50;1.77;;;;;;;6.53;91.41;97692.19;5021117;28;20048;-70
2022/04/17 07:46:41;;;;;;;4.05;2.00;;;;;;;6.62;89.14;97695.56;5025366;28;20029;-70
2022/04/17 07:49:07;;;;;;;4.50;1.52;;;;;;;6.65;90.84;97706.63;5022928;28;20697;-71
2022/04/17 07:51:33;;;;;;;3.97;2.08;;;;;;;6.74;90.19;97694.00;5025782;28;20049;-71
2022/04/17 07:53:58;;;;;;;3.15;1.65;;;;;;;6.73;88.48;97703.00;5024712;28;20088;-71
2022/04/17 07:56:24;;;;;;;3.90;1.85;;;;;;;6.89;88.04;97704.53;5026466;28;20087;-70
2022/04/17 07:58:49;;;;;;;3.35;1.73;;;;;;;7.04;89.47;97699.91;5022761;28;20447;-71
2022/04/17 08:01:16;;;;;;;4.45;1.48;;;;;;;6.90;84.70;97692.88;5021852;28;20037;-70
2022/04/17 08:06:10;;;;;;;2.83;1.63;;;;;;;6.94;88.11;97697.63;5023998;28;20042;-70
2022/04/17 08:08:37;;;;;;;3.50;1.90;;;;;;;7.07;86.20;97691.53;5021700;28;20564;-71
2022/04/17 08:11:07;;;;;;;4.43;2.08;;;;;;;7.11;83.06;97694.63;5022699;28;20116;-72
2022/04/17 08:13:34;;;;;;;3.65;1.83;;;;;;;7.09;84.02;97696.69;5021375;28;20952;-71
2022/04/17 08:16:00;;;;;;;8.45;1.90;;;;;;;7.22;84.93;97692.22;5023396;28;20071;-71
2022/04/17 08:18:26;;;;;;;7.10;2.25;;;;;;;7.29;84.30;97702.09;5021085;28;20045;-69
2022/04/17 08:20:52;;;;;;;6.80;1.88;;;;;;;7.48;83.53;97696.06;5024075;28;20040;-69
2022/04/17 08:23:17;;;;;;;3.83;1.70;;;;;;;7.51;84.30;97695.66;5020686;28;20060;-70
2022/04/17 08:25:43;;;;;;;4.35;1.52;;;;;;;7.44;77.71;97697.47;5023070;28;20049;-72
2022/04/17 08:28:09;;;;;;;4.45;2.70;;;;;;;7.63;84.43;97699.41;4671703;28;10000087;-72
2022/04/17 08:30:36;;;;;;;3.70;1.45;;;;;;;7.79;79.07;97692.88;5022774;28;20045;-69
2022/04/17 08:33:04;;;;;;;4.15;1.65;;;;;;;7.67;74.59;97694.47;5022622;28;20052;-70
2022/04/17 08:35:30;;;;;;;3.28;1.88;;;;;;;7.75;75.18;97694.28;5024465;28;20037;-71
2022/04/17 08:38:00;;;;;;;2.70;1.30;;;;;;;7.72;74.88;97700.03;5022590;28;20098;-69
2022/04/17 08:40:27;;;;;;;4.38;1.52;;;;;;;7.77;71.61;97703.72;5025255;28;20432;-69
2022/04/17 08:42:56;;;;;;;3.85;1.58;;;;;;;7.91;74.34;97695.78;5022333;28;20778;-71
2022/04/17 08:45:24;;;;;;;4.38;1.63;;;;;;;7.99;71.48;97698.25;5023316;28;20994;-69
2022/04/17 08:47:50;;;;;;;5.28;2.05;;;;;;;8.21;72.28;97697.06;5025835;28;20084;-71
2022/04/17 08:50:18;;;;;;;4.78;1.52;;;;;;;8.35;70.80;97709.44;5024429;28;20483;-70
2022/04/17 08:52:46;;;;;;;3.95;1.60;;;;;;;8.32;68.18;97709.78;5037525;28;20099;-72
2022/04/17 08:55:12;;;;;;;3.97;1.83;;;;;;;8.47;72.55;97693.63;5026108;28;20041;-71
2022/04/17 08:57:38;;;;;;;4.63;1.55;;;;;;;8.58;63.75;97702.88;5025754;28;20107;-72
2022/04/17 09:00:08;;;;;;;3.28;1.35;;;;;;;8.38;62.54;97687.66;5024063;28;20038;-72
2022/04/17 09:02:37;;;;;;;2.55;1.45;;;;;;;8.41;67.60;97697.13;5059567;28;20069;-70
2022/04/17 09:05:07;;;;;;;5.97;1.90;;;;;;;8.36;69.26;97694.25;5026569;28;20083;-72
2022/04/17 09:07:46;;;;;;;6.60;2.10;;;;;;;8.57;67.68;97679.88;5028365;28;20069;-72
2022/04/17 09:10:23;;;;;;;4.00;1.70;;;;;;;8.70;62.83;97666.53;5024485;28;20073;-72
2022/04/17 09:12:52;;;;;;;5.68;1.50;;;;;;;8.74;62.06;97666.94;5027960;28;20176;-72
2022/04/17 09:15:18;;;;;;;3.85;1.73;;;;;;;8.96;65.90;97668.34;5025464;28;20785;-72
2022/04/17 09:17:43;;;;;;;4.88;1.60;;;;;;;8.99;62.39;97673.25;5036903;28;20033;-70
2022/04/17 09:20:19;;;;;;;6.40;1.77;;;;;;;8.95;64.70;97674.72;5028872;28;20049;-72
2022/04/17 09:22:56;;;;;;;2.90;1.38;;;;;;;8.93;60.34;97679.41;5027447;28;20041;-71
2022/04/17 09:25:23;;;;;;;4.80;1.67;;;;;;;8.99;60.71;97662.56;5026285;28;20038;-72
2022/04/17 09:27:55;;;;;;;5.43;1.45;;;;;;;9.13;60.42;97663.38;5026551;28;20120;-71
2022/04/17 09:30:35;;;;;;;3.35;1.50;;;;;;;9.41;63.11;97663.06;5022677;28;20041;-70
2022/04/17 09:33:09;;;;;;;3.70;1.70;;;;;;;9.35;58.35;97666.59;5026151;28;21385;-70
2022/04/17 09:35:35;;;;;;;4.53;2.00;;;;;;;9.77;62.46;97651.78;5029141;28;20045;-70
2022/04/17 09:38:05;;;;;;;3.50;1.52;;;;;;;10.19;67.56;97644.94;5022362;28;20160;-72
2022/04/17 09:40:31;;;;;;;4.18;1.67;;;;;;;10.46;62.71;97637.56;5019058;28;20070;-72
2022/04/17 09:43:31;;;;;;;3.70;1.60;;;;;;;10.73;58.08;97639.97;5054285;28;20200;-70
2022/04/17 09:46:04;;;;;;;3.28;1.17;;;;;;;10.18;55.32;97631.78;5016602;28;20714;-70
2022/04/17 09:48:41;;;;;;;3.72;1.60;;;;;;;10.28;55.12;97630.31;5025043;28;20052;-71
2022/04/17 09:51:22;;;;;;;5.05;1.35;;;;;;;10.63;50.29;97627.09;5029339;28;20053;-72
2022/04/17 09:54:06;;;;;;;3.53;1.60;;;;;;;11.11;51.79;97624.53;5025444;28;20076;-72
2022/04/17 09:56:39;;;;;;;3.80;1.60;;;;;;;11.28;50.57;97616.72;5023743;28;20033;-72
2022/04/17 09:59:16;;;;;;;5.43;1.60;;;;;;;10.86;48.04;97607.72;5025144;28;20045;-70
2022/04/17 10:01:44;;;;;;;4.25;1.70;;;;;;;10.90;49.17;97608.94;5027079;28;20073;-70
2022/04/17 10:04:10;;;;;;;3.97;1.20;;;;;;;10.71;48.82;97602.72;5025080;28;20413;-71
2022/04/17 10:06:37;;;;;;;2.15;0.98;;;;;;;10.62;47.37;97598.72;5024814;28;20124;-72
2022/04/17 10:09:04;;;;;;;4.68;1.45;;;;;;;10.71;47.84;97589.34;5025400;28;20073;-72
2022/04/17 10:11:32;;;;;;;7.75;1.50;;;;;;;10.87;49.00;97599.47;5022868;28;20362;-70
2022/04/17 10:13:59;;;;;;;2.55;1.25;;;;;;;10.91;45.78;97596.38;5029987;28;20063;-69
2022/04/17 10:16:28;;;;;;;1.90;0.90;;;;;;;11.05;43.24;97597.81;5023798;28;20104;-72
2022/04/17 10:18:55;;;;;;;2.65;1.15;;;;;;;11.49;43.90;97587.81;5027746;28;20037;-70
2022/04/17 10:21:24;;;;;;;4.25;1.63;;;;;;;11.56;44.67;97589.38;5027542;28;20452;-70
2022/04/17 10:23:56;;;;;;;3.78;1.38;;;;;;;11.64;42.28;97586.38;5026378;28;20437;-70
2022/04/17 10:26:25;;;;;;;5.22;1.60;;;;;;;11.46;43.06;97583.75;5021154;28;21232;-70
2022/04/17 10:28:54;;;;;;;3.25;1.42;;;;;;;12.11;46.49;97574.97;5023460;28;20030;-72
2022/04/17 10:31:20;;;;;;;4.35;1.20;;;;;;;12.84;43.93;97571.84;5022777;28;20045;-72
2022/04/17 10:34:07;;;;;;;3.50;1.50;;;;;;;12.71;41.62;97574.78;5027408;28;20055;-72
2022/04/17 10:37:01;;;;;;;2.72;1.20;;;;;;;13.10;39.66;97563.25;5025383;28;20409;-70
2022/04/17 10:39:35;;;;;;;3.67;1.00;;;;;;;13.23;36.92;97556.00;5027998;28;20230;-72
2022/04/17 10:42:01;;;;;;;2.25;1.05;;;;;;;12.63;39.36;97548.28;5027808;28;20269;-72
2022/04/17 10:44:31;;;;;;;2.88;1.10;;;;;;;13.14;38.97;97554.72;5025402;28;20471;-70
2022/04/17 10:46:57;;;;;;;2.63;1.10;;;;;;;13.90;37.97;97534.66;5022755;28;20049;-70
2022/04/17 10:49:27;;;;;;;2.80;1.20;;;;;;;14.73;34.59;97549.16;5024024;28;20037;-72
2022/04/17 10:51:54;;;;;;;2.40;1.10;;;;;;;14.02;33.45;97540.78;5038747;28;20479;-70
2022/04/17 10:54:20;;;;;;;3.42;0.98;;;;;;;14.99;33.26;97545.72;5040088;28;20504;-72
2022/04/17 10:56:54;;;;;;;3.63;1.48;;;;;;;16.33;30.43;97535.22;5023516;28;20068;-72
2022/04/17 10:59:31;;;;;;;3.78;1.27;;;;;;;18.50;28.93;97525.38;5023393;28;20048;-70
2022/04/17 11:02:00;;;;;;;3.00;1.23;;;;;;;17.38;27.87;97538.00;5022998;28;20053;-70
2022/04/17 11:04:40;;;;;;;3.65;1.42;;;;;;;19.85;25.80;97520.03;5022218;28;20041;-70
2022/04/17 11:07:06;;;;;;;4.15;1.17;;;;;;;21.74;25.35;97516.94;5022634;28;20049;-72
2022/04/17 11:09:42;;;;;;;4.60;1.52;;;;;;;20.85;24.31;97514.81;5023885;28;20456;-72
2022/04/17 11:12:26;;;;;;;3.53;1.40;;;;;;;23.38;23.87;97504.78;5021080;28;20094;-72
2022/04/17 11:15:17;;;;;;;3.25;1.30;;;;;;;24.26;23.72;97496.22;5022531;28;20047;-70
2022/04/17 11:17:43;;;;;;;;;;;;;;;23.60;22.52;97498.63;5020611;28;20057;-70
2022/04/17 11:20:09;;;;;;;2.83;1.30;;;;;;;24.96;22.85;97495.47;5022317;28;19913;-72
2022/04/17 11:22:37;;;;;;;3.35;1.30;;;;;;;23.46;22.13;97490.41;5024262;28;20044;-70
2022/04/17 11:25:06;;;;;;;4.45;2.15;;;;;;;23.23;23.32;97486.81;5022824;28;20050;-73
2022/04/17 11:27:31;;;;;;;3.42;1.20;;;;;;;22.69;23.14;97479.41;5024516;28;20485;-70
2022/04/17 11:29:58;;;;;;;4.28;1.75;;;;;;;24.72;22.16;97473.97;5022541;28;20082;-70
2022/04/17 11:32:25;;;;;;;5.07;1.65;;;;;;;23.83;22.11;97486.59;5020960;28;20483;-70
2022/04/17 11:34:54;;;;;;;6.35;1.85;;;;;;;23.67;22.64;97477.16;5024558;28;20049;-70
2022/04/17 11:37:19;;;;;;;5.20;1.58;;;;;;;21.78;23.94;97477.09;5023868;28;20337;-70
2022/04/17 11:39:45;;;;;;;2.53;1.20;;;;;;;21.05;24.27;97486.53;5019435;28;20042;-72
2022/04/17 11:42:11;;;;;;;3.50;1.30;;;;;;;20.81;23.91;97472.13;5036703;28;20029;-71
2022/04/17 11:44:40;;;;;;;3.42;1.50;;;;;;;23.41;24.14;97463.19;5021501;28;20116;-73
2022/04/17 11:47:07;;;;;;;4.93;1.70;;;;;;;25.71;21.90;97460.72;5023585;28;20451;-71
2022/04/17 11:49:39;;;;;;;4.97;1.60;;;;;;;24.59;20.30;97453.00;5022315;28;20503;-71
2022/04/17 11:52:16;;;;;;;2.80;1.50;;;;;;;21.29;24.42;97448.41;5022032;28;20054;-73
2022/04/17 11:54:43;;;;;;;4.38;1.80;;;;;;;22.98;22.32;97452.66;5024179;28;20477;-70
2022/04/17 11:57:12;;;;;;;4.50;1.30;;;;;;;21.36;23.34;97456.22;5021820;28;20086;-70